createdAt,value
2022-09-25T00:01:04.896Z,11.70
2022-09-25T00:03:33.220Z,11.50
2022-09-25T00:06:06.415Z,11.60
2022-09-25T00:08:34.673Z,11.60
2022-09-25T00:11:07.648Z,11.60
2022-09-25T00:13:37.322Z,11.50
2022-09-25T00:16:05.601Z,11.50
2022-09-25T00:18:51.313Z,11.50
2022-09-25T00:21:19.762Z,11.50
2022-09-25T00:23:48.411Z,11.50
2022-09-25T00:26:17.876Z,11.40
2022-09-25T00:28:47.111Z,11.40
2022-09-25T00:31:24.485Z,11.40
2022-09-25T00:33:52.621Z,11.30
2022-09-25T00:36:21.398Z,11.40
2022-09-25T00:38:50.627Z,11.40
2022-09-25T00:41:20.397Z,11.30
2022-09-25T00:43:52.063Z,11.40
2022-09-25T00:46:23.781Z,11.30
2022-09-25T00:48:56.088Z,11.30
2022-09-25T00:51:29.703Z,11.30
2022-09-25T00:54:01.170Z,11.30
2022-09-25T00:56:32.885Z,11.20
2022-09-25T00:59:02.775Z,11.30
2022-09-25T01:01:31.073Z,11.20
2022-09-25T01:04:00.809Z,11.20
2022-09-25T01:06:29.195Z,11.20
2022-09-25T01:08:58.112Z,11.10
2022-09-25T01:11:26.238Z,11.20
2022-09-25T01:13:58.035Z,11.20
2022-09-25T01:16:33.267Z,11.10
2022-09-25T01:19:13.392Z,11.10
2022-09-25T01:21:46.007Z,11.10
2022-09-25T01:24:36.405Z,11.10
2022-09-25T01:27:30.550Z,11.10
2022-09-25T01:30:06.711Z,11.00
2022-09-25T01:32:44.214Z,11.00
2022-09-25T01:35:19.598Z,11.00
2022-09-25T01:37:55.954Z,11.00
2022-09-25T01:40:29.189Z,10.90
2022-09-25T01:43:02.851Z,10.90
2022-09-25T01:45:37.757Z,10.90
2022-09-25T01:48:09.123Z,10.90
2022-09-25T01:50:43.193Z,10.90
2022-09-25T01:53:16.634Z,10.90
2022-09-25T01:55:47.671Z,10.80
2022-09-25T01:58:20.214Z,10.80
2022-09-25T02:00:55.495Z,10.80
2022-09-25T02:03:30.920Z,10.80
2022-09-25T02:06:03.473Z,10.80
2022-09-25T02:08:36.272Z,10.80
2022-09-25T02:11:06.884Z,10.70
2022-09-25T02:13:40.086Z,10.70
2022-09-25T02:16:13.441Z,10.70
2022-09-25T02:18:59.349Z,10.70
2022-09-25T02:21:32.267Z,10.60
2022-09-25T02:24:11.576Z,10.70
2022-09-25T02:26:39.567Z,10.70
2022-09-25T02:29:08.746Z,10.60
2022-09-25T02:31:41.219Z,10.60
2022-09-25T02:34:14.804Z,10.70
2022-09-25T02:36:44.656Z,10.60
2022-09-25T02:39:14.899Z,10.60
2022-09-25T02:41:54.581Z,10.60
2022-09-25T02:44:32.022Z,10.60
2022-09-25T02:47:14.193Z,10.70
2022-09-25T02:49:52.048Z,10.60
2022-09-25T02:52:28.841Z,10.60
2022-09-25T02:55:04.973Z,10.60
2022-09-25T02:57:38.677Z,10.60
2022-09-25T03:00:10.657Z,10.60
2022-09-25T03:02:45.780Z,10.60
2022-09-25T03:05:17.989Z,10.60
2022-09-25T03:08:03.464Z,10.60
2022-09-25T03:10:33.406Z,10.60
2022-09-25T03:13:14.796Z,10.60
2022-09-25T03:15:45.354Z,10.60
2022-09-25T03:18:15.392Z,10.60
2022-09-25T03:20:43.424Z,10.60
2022-09-25T03:23:11.659Z,10.60
2022-09-25T03:25:39.886Z,10.60
2022-09-25T03:28:13.171Z,10.60
2022-09-25T03:30:41.656Z,10.60
2022-09-25T03:33:10.386Z,10.60
2022-09-25T03:35:40.391Z,10.60
2022-09-25T03:38:10.314Z,10.70
2022-09-25T03:40:38.333Z,10.60
2022-09-25T03:45:33.277Z,10.60
2022-09-25T03:48:01.274Z,10.60
2022-09-25T03:50:29.160Z,10.60
2022-09-25T03:52:58.441Z,10.70
2022-09-25T03:55:26.445Z,10.70
2022-09-25T03:57:54.362Z,10.70
2022-09-25T04:00:23.980Z,10.70
2022-09-25T04:02:52.000Z,10.70
2022-09-25T04:05:21.365Z,10.70
2022-09-25T04:07:49.340Z,10.70
2022-09-25T04:10:18.606Z,10.70
2022-09-25T04:12:46.568Z,10.70
2022-09-25T04:15:15.249Z,10.70
2022-09-25T04:17:43.142Z,10.70
2022-09-25T04:20:11.313Z,10.70
2022-09-25T04:22:39.314Z,10.70
2022-09-25T04:25:07.686Z,10.70
2022-09-25T04:27:37.734Z,10.70
2022-09-25T04:30:06.775Z,10.70
2022-09-25T04:32:52.389Z,10.70
2022-09-25T04:35:20.346Z,10.70
2022-09-25T04:37:48.346Z,10.70
2022-09-25T04:40:16.647Z,10.70
2022-09-25T04:42:46.012Z,10.70
2022-09-25T04:45:14.794Z,10.70
2022-09-25T04:47:42.791Z,10.80
2022-09-25T04:50:10.920Z,10.70
2022-09-25T04:52:39.119Z,10.70
2022-09-25T04:55:07.577Z,10.70
2022-09-25T04:57:57.065Z,10.70
2022-09-25T05:00:26.331Z,10.60
2022-09-25T05:02:54.389Z,10.70
2022-09-25T05:05:22.746Z,10.70
2022-09-25T05:07:54.237Z,10.60
2022-09-25T05:10:22.818Z,10.70
2022-09-25T05:12:56.252Z,10.60
2022-09-25T05:15:25.719Z,10.60
2022-09-25T05:18:01.006Z,10.60
2022-09-25T05:20:29.284Z,10.60
2022-09-25T05:22:57.973Z,10.60
2022-09-25T05:25:26.567Z,10.60
2022-09-25T05:27:55.797Z,10.60
2022-09-25T05:30:25.457Z,10.50
2022-09-25T05:32:54.072Z,10.60
2022-09-25T05:35:24.000Z,10.60
2022-09-25T05:37:52.116Z,10.50
2022-09-25T05:40:21.360Z,10.50
2022-09-25T05:42:49.566Z,10.50
2022-09-25T05:45:18.577Z,10.60
2022-09-25T05:47:48.131Z,10.60
2022-09-25T05:50:17.971Z,10.60
2022-09-25T05:52:45.915Z,10.50
2022-09-25T05:55:13.836Z,10.50
2022-09-25T05:57:41.761Z,10.60
2022-09-25T06:00:12.677Z,10.50
2022-09-25T06:02:40.689Z,10.50
2022-09-25T06:05:10.578Z,10.50
2022-09-25T06:07:38.553Z,10.50
2022-09-25T06:10:07.437Z,10.60
2022-09-25T06:12:35.384Z,10.60
2022-09-25T06:15:03.361Z,10.60
2022-09-25T06:17:31.348Z,10.60
2022-09-25T06:19:59.246Z,10.70
2022-09-25T06:22:28.523Z,10.60
2022-09-25T06:24:56.423Z,10.70
2022-09-25T06:27:24.382Z,10.70
2022-09-25T06:29:52.316Z,10.70
2022-09-25T06:32:21.456Z,10.70
2022-09-25T06:34:49.394Z,10.80
2022-09-25T06:37:17.291Z,10.80
2022-09-25T06:39:46.588Z,10.80
2022-09-25T06:42:14.665Z,10.90
2022-09-25T06:44:43.846Z,10.90
2022-09-25T06:47:16.236Z,10.90
2022-09-25T06:49:47.168Z,10.90
2022-09-25T06:52:15.095Z,11.00
2022-09-25T06:54:44.304Z,11.00
2022-09-25T06:57:14.913Z,11.00
2022-09-25T06:59:42.781Z,11.10
2022-09-25T07:02:25.062Z,11.10
2022-09-25T07:04:53.069Z,11.10
2022-09-25T07:07:21.144Z,11.20
2022-09-25T07:09:49.093Z,11.30
2022-09-25T07:12:18.683Z,11.30
2022-09-25T07:14:47.632Z,11.30
2022-09-25T07:17:15.696Z,11.30
2022-09-25T07:19:43.616Z,11.30
2022-09-25T07:22:12.628Z,11.50
2022-09-25T07:24:40.544Z,11.40
2022-09-25T07:27:08.450Z,11.40
2022-09-25T07:29:38.066Z,11.50
2022-09-25T07:32:05.985Z,11.50
2022-09-25T07:34:36.136Z,11.60
2022-09-25T07:37:04.353Z,11.60
2022-09-25T07:39:32.252Z,11.70
2022-09-25T07:42:00.176Z,11.70
2022-09-25T07:44:29.513Z,11.70
2022-09-25T07:47:02.582Z,11.80
2022-09-25T07:49:30.525Z,11.80
2022-09-25T07:51:59.099Z,11.80
2022-09-25T07:54:26.992Z,11.90
2022-09-25T07:56:54.967Z,12.00
2022-09-25T07:59:22.884Z,12.10
2022-09-25T08:01:53.981Z,12.10
2022-09-25T08:04:23.728Z,12.10
2022-09-25T08:06:51.669Z,12.20
2022-09-25T08:09:19.556Z,12.20
2022-09-25T08:11:47.499Z,12.30
2022-09-25T08:14:15.804Z,12.30
2022-09-25T08:16:43.982Z,12.50
2022-09-25T08:19:12.386Z,12.50
2022-09-25T08:21:41.659Z,12.50
2022-09-25T08:24:10.814Z,12.50
2022-09-25T08:26:38.842Z,12.70
2022-09-25T08:29:08.215Z,12.80
2022-09-25T08:31:36.637Z,12.70
2022-09-25T08:34:28.244Z,12.80
2022-09-25T08:36:54.337Z,12.90
2022-09-25T08:39:22.413Z,12.90
2022-09-25T08:41:54.000Z,13.00
2022-09-25T08:44:27.202Z,13.10
2022-09-25T08:47:19.475Z,13.10
2022-09-25T08:49:52.154Z,13.20
2022-09-25T08:52:22.891Z,13.20
2022-09-25T08:54:52.982Z,13.30
2022-09-25T08:57:29.710Z,13.30
2022-09-25T09:00:03.068Z,13.40
2022-09-25T09:02:39.376Z,13.30
2022-09-25T09:05:18.449Z,13.40
2022-09-25T09:07:51.323Z,13.50
2022-09-25T09:10:29.665Z,13.70
2022-09-25T09:13:02.643Z,13.80
2022-09-25T09:15:36.532Z,13.70
2022-09-25T09:18:23.447Z,13.60
2022-09-25T09:20:54.459Z,13.70
2022-09-25T09:23:25.633Z,13.90
2022-09-25T09:26:02.437Z,13.90
2022-09-25T09:29:01.353Z,14.10
2022-09-25T09:31:35.470Z,14.20
2022-09-25T09:34:46.448Z,14.20
2022-09-25T09:37:20.625Z,14.30
2022-09-25T09:40:00.814Z,14.30
2022-09-25T09:42:37.994Z,14.40
2022-09-25T09:45:14.072Z,14.50
2022-09-25T09:47:50.735Z,14.40
2022-09-25T09:50:30.559Z,14.70
2022-09-25T09:53:03.152Z,14.70
2022-09-25T09:55:40.152Z,14.70
2022-09-25T09:58:17.982Z,14.80
2022-09-25T10:00:47.031Z,14.90
2022-09-25T10:03:19.815Z,15.00
2022-09-25T10:05:49.521Z,15.00
2022-09-25T10:08:18.097Z,15.10
2022-09-25T10:10:51.763Z,15.30
2022-09-25T10:13:23.204Z,15.30
2022-09-25T10:15:54.757Z,15.40
2022-09-25T10:18:26.766Z,15.40
2022-09-25T10:20:59.189Z,15.50
2022-09-25T10:23:36.369Z,15.70
2022-09-25T10:26:17.727Z,15.60
2022-09-25T10:28:46.748Z,15.70
2022-09-25T10:31:17.302Z,15.80
2022-09-25T10:34:00.537Z,15.70
2022-09-25T10:36:39.315Z,16.00
2022-09-25T10:39:43.530Z,16.10
2022-09-25T10:42:44.814Z,16.00
2022-09-25T10:45:31.869Z,16.10
2022-09-25T10:48:17.485Z,16.20
2022-09-25T10:50:45.564Z,16.20
2022-09-25T10:53:30.992Z,16.40
2022-09-25T10:56:04.920Z,16.40
2022-09-25T10:58:37.895Z,16.50
2022-09-25T11:01:13.330Z,16.50
2022-09-25T11:03:52.230Z,16.60
2022-09-25T11:06:24.752Z,16.70
2022-09-25T11:09:05.013Z,16.80
2022-09-25T11:11:33.139Z,16.80
2022-09-25T11:14:04.363Z,16.80
2022-09-25T11:16:52.561Z,16.90
2022-09-25T11:19:29.030Z,17.00
2022-09-25T11:22:16.772Z,17.10
2022-09-25T11:25:12.277Z,17.10
2022-09-25T11:27:54.592Z,17.20
2022-09-25T11:30:26.732Z,17.30
2022-09-25T11:33:04.874Z,17.30
2022-09-25T11:35:44.216Z,17.30
2022-09-25T11:38:44.508Z,17.50
2022-09-25T11:41:22.994Z,17.40
2022-09-25T11:43:58.694Z,17.40
2022-09-25T11:46:35.514Z,17.50
2022-09-25T11:49:15.764Z,17.50
2022-09-25T11:52:20.620Z,17.60
2022-09-25T11:55:16.559Z,17.60
2022-09-25T11:57:56.586Z,17.70
2022-09-25T12:00:31.174Z,17.70
2022-09-25T12:03:26.884Z,17.80
2022-09-25T12:06:20.055Z,17.80
2022-09-25T12:08:57.876Z,17.80
2022-09-25T12:11:37.944Z,18.00
2022-09-25T12:14:16.611Z,17.80
2022-09-25T12:16:58.030Z,17.80
2022-09-25T12:19:36.930Z,17.90
2022-09-25T12:22:10.887Z,17.90
2022-09-25T12:24:52.458Z,17.80
2022-09-25T12:27:40.421Z,18.00
2022-09-25T12:30:19.548Z,17.90
2022-09-25T12:33:03.999Z,18.00
2022-09-25T12:35:44.509Z,18.00
2022-09-25T12:38:23.861Z,17.90
2022-09-25T12:40:58.458Z,18.00
2022-09-25T12:43:33.470Z,17.90
2022-09-25T12:46:08.189Z,17.90
2022-09-25T12:48:40.196Z,17.90
2022-09-25T12:51:15.939Z,18.00
2022-09-25T12:53:50.386Z,17.90
2022-09-25T12:56:24.249Z,17.90
2022-09-25T12:58:59.247Z,17.80
2022-09-25T13:01:34.430Z,17.90
2022-09-25T13:04:16.885Z,17.80
2022-09-25T13:06:51.365Z,17.90
2022-09-25T13:09:29.956Z,17.80
2022-09-25T13:12:03.741Z,18.00
2022-09-25T13:14:36.392Z,17.90
2022-09-25T13:17:04.584Z,17.80
2022-09-25T13:19:35.200Z,17.80
2022-09-25T13:22:08.266Z,17.80
2022-09-25T13:24:45.280Z,17.90
2022-09-25T13:27:18.868Z,17.90
2022-09-25T13:29:57.679Z,17.90
2022-09-25T13:32:29.065Z,17.90
2022-09-25T13:35:01.430Z,17.80
2022-09-25T13:37:32.922Z,18.00
2022-09-25T13:40:35.121Z,17.90
2022-09-25T13:43:30.532Z,17.90
2022-09-25T13:46:33.752Z,17.90
2022-09-25T13:49:35.207Z,17.90
2022-09-25T13:52:06.880Z,17.90
2022-09-25T13:54:37.667Z,18.00
2022-09-25T13:57:07.870Z,18.00
2022-09-25T13:59:39.989Z,18.00
2022-09-25T14:02:41.867Z,18.10
2022-09-25T14:05:14.819Z,18.10
2022-09-25T14:07:42.962Z,18.10
2022-09-25T14:10:12.699Z,18.10
2022-09-25T14:12:53.360Z,18.10
2022-09-25T14:15:29.558Z,18.20
2022-09-25T14:18:00.876Z,18.20
2022-09-25T14:20:35.297Z,18.30
2022-09-25T14:23:07.971Z,18.20
2022-09-25T14:25:42.575Z,18.20
2022-09-25T14:28:22.509Z,18.30
2022-09-25T14:31:02.058Z,18.30
2022-09-25T14:33:49.145Z,18.30
2022-09-25T14:36:26.582Z,18.40
2022-09-25T14:39:07.781Z,18.40
2022-09-25T14:41:58.787Z,18.50
2022-09-25T14:45:02.403Z,18.40
2022-09-25T14:47:33.981Z,18.40
2022-09-25T14:50:02.256Z,18.50
2022-09-25T14:52:33.198Z,18.50
2022-09-25T14:55:03.758Z,18.50
2022-09-25T14:57:33.781Z,18.40
2022-09-25T15:00:06.142Z,18.40
2022-09-25T15:02:40.032Z,18.50
2022-09-25T15:05:31.194Z,18.40
2022-09-25T15:08:02.112Z,18.40
2022-09-25T15:10:33.212Z,18.40
2022-09-25T15:13:09.733Z,18.50
2022-09-25T15:15:40.465Z,18.50
2022-09-25T15:18:13.588Z,18.50
2022-09-25T15:20:49.117Z,18.50
2022-09-25T15:23:19.868Z,18.40
2022-09-25T15:25:50.583Z,18.40
2022-09-25T15:28:22.319Z,18.40
2022-09-25T15:30:58.549Z,18.40
2022-09-25T15:33:29.156Z,18.30
2022-09-25T15:35:58.854Z,18.30
2022-09-25T15:38:31.577Z,18.30
2022-09-25T15:41:03.743Z,18.30
2022-09-25T15:43:34.426Z,18.20
2022-09-25T15:46:32.575Z,18.20
2022-09-25T15:49:01.561Z,18.20
2022-09-25T15:51:34.754Z,18.20
2022-09-25T15:54:07.701Z,18.20
2022-09-25T15:56:46.650Z,18.10
2022-09-25T15:59:35.200Z,18.10
2022-09-25T16:02:37.211Z,18.00
2022-09-25T16:05:09.396Z,18.10
2022-09-25T16:07:39.202Z,17.90
2022-09-25T16:10:30.287Z,17.90
2022-09-25T16:12:58.407Z,17.80
2022-09-25T16:15:48.115Z,17.90
2022-09-25T16:18:39.550Z,17.80
2022-09-25T16:21:28.870Z,17.70
2022-09-25T16:23:59.868Z,17.80
2022-09-25T16:26:37.358Z,17.70
2022-09-25T16:29:19.997Z,17.80
2022-09-25T16:31:51.418Z,17.60
2022-09-25T16:34:26.402Z,17.60
2022-09-25T16:36:57.654Z,17.60
2022-09-25T16:39:31.967Z,17.70
2022-09-25T16:42:00.514Z,17.60
2022-09-25T16:44:46.006Z,17.50
2022-09-25T16:47:17.834Z,17.40
2022-09-25T16:49:47.255Z,17.30
2022-09-25T16:52:20.399Z,17.30
2022-09-25T16:54:52.939Z,17.30
2022-09-25T16:57:21.812Z,17.30
2022-09-25T16:59:50.124Z,17.30
2022-09-25T17:02:26.009Z,17.20
2022-09-25T17:04:55.474Z,17.10
2022-09-25T17:07:23.438Z,17.10
2022-09-25T17:09:51.637Z,17.00
2022-09-25T17:12:22.164Z,16.90
2022-09-25T17:14:51.029Z,16.90
2022-09-25T17:17:21.703Z,16.90
2022-09-25T17:19:50.230Z,16.70
2022-09-25T17:22:20.359Z,16.80
2022-09-25T17:24:48.283Z,16.70
2022-09-25T17:27:17.277Z,16.70
2022-09-25T17:29:46.605Z,16.60
2022-09-25T17:32:17.582Z,16.60
2022-09-25T17:34:47.055Z,16.50
2022-09-25T17:37:15.494Z,16.40
2022-09-25T17:39:44.793Z,16.30
2022-09-25T17:42:12.743Z,16.30
2022-09-25T17:44:43.765Z,16.30
2022-09-25T17:47:13.155Z,16.30
2022-09-25T17:49:41.952Z,16.10
2022-09-25T17:52:11.459Z,16.10
2022-09-25T17:54:39.349Z,16.00
2022-09-25T17:57:09.743Z,16.00
2022-09-25T17:59:37.720Z,16.00
2022-09-25T18:02:05.743Z,15.90
2022-09-25T18:04:34.998Z,16.00
2022-09-25T18:07:03.966Z,15.80
2022-09-25T18:09:31.893Z,15.90
2022-09-25T18:11:59.818Z,15.70
2022-09-25T18:14:29.121Z,15.80
2022-09-25T18:16:57.011Z,15.60
2022-09-25T18:19:42.174Z,15.70
2022-09-25T18:22:19.539Z,15.70
2022-09-25T18:24:48.027Z,15.60
2022-09-25T18:27:16.672Z,15.60
2022-09-25T18:29:47.380Z,15.50
2022-09-25T18:32:15.531Z,15.50
2022-09-25T18:34:43.546Z,15.50
2022-09-25T18:37:11.985Z,15.40
2022-09-25T18:39:40.076Z,15.40
2022-09-25T18:42:08.165Z,15.40
2022-09-25T18:44:42.166Z,15.30
2022-09-25T18:47:12.291Z,15.30
2022-09-25T18:49:40.431Z,15.20
2022-09-25T18:52:08.460Z,15.30
2022-09-25T18:54:36.471Z,15.20
2022-09-25T18:57:04.548Z,15.20
2022-09-25T18:59:32.600Z,15.10
2022-09-25T19:02:00.745Z,15.00
2022-09-25T19:04:30.160Z,14.90
2022-09-25T19:06:58.091Z,15.00
2022-09-25T19:09:27.785Z,14.90
2022-09-25T19:11:56.184Z,14.90
2022-09-25T19:14:25.025Z,15.00
2022-09-25T19:16:53.381Z,14.90
2022-09-25T19:19:21.473Z,14.80
2022-09-25T19:21:50.782Z,14.70
2022-09-25T19:24:19.238Z,14.70
2022-09-25T19:26:48.028Z,14.80
2022-09-25T19:29:16.037Z,14.80
2022-09-25T19:31:44.299Z,14.70
2022-09-25T19:34:12.468Z,14.70
2022-09-25T19:36:40.471Z,14.60
2022-09-25T19:39:09.825Z,14.60
2022-09-25T19:41:40.726Z,14.70
2022-09-25T19:44:13.950Z,14.60
2022-09-25T19:46:42.875Z,14.50
2022-09-25T19:49:11.372Z,14.50
2022-09-25T19:51:39.418Z,14.50
2022-09-25T19:54:10.671Z,14.40
2022-09-25T19:56:40.831Z,14.60
2022-09-25T19:59:10.049Z,14.50
2022-09-25T20:01:38.347Z,14.40
2022-09-25T20:04:08.450Z,14.30
2022-09-25T20:06:37.848Z,14.30
2022-09-25T20:09:07.262Z,14.30
2022-09-25T20:11:36.749Z,14.30
2022-09-25T20:14:07.414Z,14.20
2022-09-25T20:16:37.327Z,14.10
2022-09-25T20:19:06.921Z,14.10
2022-09-25T20:21:36.652Z,14.10
2022-09-25T20:24:06.711Z,14.10
2022-09-25T20:26:36.695Z,14.00
2022-09-25T20:29:08.586Z,14.20
2022-09-25T20:31:38.191Z,14.00
2022-09-25T20:34:06.589Z,14.00
2022-09-25T20:36:36.214Z,14.10
2022-09-25T20:39:04.600Z,13.90
2022-09-25T20:41:33.207Z,14.00
2022-09-25T20:44:03.178Z,13.80
2022-09-25T20:46:32.659Z,13.80
2022-09-25T20:49:01.971Z,13.80
2022-09-25T20:51:34.836Z,13.90
2022-09-25T20:54:04.927Z,13.80
2022-09-25T20:56:34.063Z,13.80
2022-09-25T20:59:06.219Z,13.80
2022-09-25T21:01:36.617Z,13.70
2022-09-25T21:04:07.712Z,13.70
2022-09-25T21:06:37.402Z,13.70
2022-09-25T21:09:07.654Z,13.60
2022-09-25T21:11:35.613Z,13.60
2022-09-25T21:14:05.335Z,13.60
2022-09-25T21:16:34.574Z,13.70
2022-09-25T21:19:04.752Z,13.60
2022-09-25T21:21:33.922Z,13.60
2022-09-25T21:24:02.552Z,13.60
2022-09-25T21:26:31.926Z,13.50
2022-09-25T21:29:01.369Z,13.60
2022-09-25T21:31:34.610Z,13.40
2022-09-25T21:34:02.755Z,13.40
2022-09-25T21:36:31.449Z,13.40
2022-09-25T21:39:00.545Z,13.50
2022-09-25T21:41:29.878Z,13.50
2022-09-25T21:43:59.708Z,13.40
2022-09-25T21:46:28.570Z,13.40
2022-09-25T21:49:00.026Z,13.50
2022-09-25T21:51:29.995Z,13.40
2022-09-25T21:53:58.318Z,13.40
2022-09-25T21:56:28.001Z,13.40
2022-09-25T21:58:57.651Z,13.40
2022-09-25T22:01:27.518Z,13.40
2022-09-25T22:03:58.665Z,13.30
2022-09-25T22:06:28.484Z,13.30
2022-09-25T22:08:58.422Z,13.40
2022-09-25T22:11:27.282Z,13.30
2022-09-25T22:13:57.714Z,13.30
2022-09-25T22:16:27.591Z,13.30
2022-09-25T22:18:58.958Z,13.40
2022-09-25T22:21:28.997Z,13.40
2022-09-25T22:23:57.759Z,13.30
2022-09-25T22:26:26.963Z,13.30
2022-09-25T22:28:55.089Z,13.30
2022-09-25T22:31:25.249Z,13.30
2022-09-25T22:33:55.990Z,13.30
2022-09-25T22:36:25.314Z,13.40
2022-09-25T22:38:53.191Z,13.30
2022-09-25T22:41:21.535Z,13.40
2022-09-25T22:43:52.340Z,13.30
2022-09-25T22:46:21.378Z,13.30
2022-09-25T22:48:49.505Z,13.40
2022-09-25T22:51:19.351Z,13.50
2022-09-25T22:53:49.184Z,13.40
2022-09-25T22:56:18.933Z,13.40
2022-09-25T22:58:49.850Z,13.40
2022-09-25T23:01:20.676Z,13.40
2022-09-25T23:03:48.850Z,13.30
2022-09-25T23:06:16.770Z,13.40
2022-09-25T23:08:44.697Z,13.30
2022-09-25T23:11:13.949Z,13.40
2022-09-25T23:13:41.858Z,13.50
2022-09-25T23:16:10.029Z,13.50
2022-09-25T23:18:38.314Z,13.50
2022-09-25T23:21:06.441Z,13.40
2022-09-25T23:23:34.396Z,13.50
2022-09-25T23:26:06.031Z,13.40
2022-09-25T23:28:36.804Z,13.60
2022-09-25T23:31:10.018Z,13.40
2022-09-25T23:33:39.561Z,13.60
2022-09-25T23:36:09.637Z,13.40
2022-09-25T23:38:37.874Z,13.50
2022-09-25T23:41:14.924Z,13.40
2022-09-25T23:43:44.858Z,13.40
2022-09-25T23:46:12.985Z,13.40
2022-09-25T23:48:41.161Z,13.40
2022-09-25T23:51:09.560Z,13.50
2022-09-25T23:53:37.859Z,13.50
2022-09-25T23:56:07.988Z,13.60
2022-09-25T23:58:36.230Z,13.50
